createdAt,value
2022-08-14T00:00:15.836Z,28.62
2022-08-14T00:00:45.954Z,28.58
2022-08-14T00:01:15.940Z,28.59
2022-08-14T00:01:55.453Z,28.67
2022-08-14T00:02:16.050Z,28.56
2022-08-14T00:02:46.393Z,28.58
2022-08-14T00:03:16.051Z,28.65
2022-08-14T00:03:46.089Z,28.53
2022-08-14T00:04:36.004Z,28.59
2022-08-14T00:04:46.209Z,28.59
2022-08-14T00:05:16.317Z,28.59
2022-08-14T00:05:46.434Z,28.58
2022-08-14T00:06:25.606Z,28.54
2022-08-14T00:06:47.118Z,28.59
2022-08-14T00:07:16.556Z,28.73
2022-08-14T00:07:46.667Z,28.67
2022-08-14T00:08:16.715Z,28.59
2022-08-14T00:08:46.726Z,28.73
2022-08-14T00:09:16.845Z,28.62
2022-08-14T00:10:01.988Z,28.65
2022-08-14T00:10:51.960Z,28.67
2022-08-14T00:10:52.274Z,28.59
2022-08-14T00:11:17.007Z,28.68
2022-08-14T00:11:46.901Z,28.63
2022-08-14T00:12:23.804Z,28.75
2022-08-14T00:12:53.339Z,28.63
2022-08-14T00:13:17.085Z,28.60
2022-08-14T00:13:52.788Z,28.62
2022-08-14T00:14:17.125Z,28.62
2022-08-14T00:14:47.156Z,28.62
2022-08-14T00:15:17.164Z,28.62
2022-08-14T00:15:48.341Z,28.68
2022-08-14T00:16:41.291Z,28.68
2022-08-14T00:16:47.337Z,28.66
2022-08-14T00:17:17.417Z,28.63
2022-08-14T00:17:53.147Z,28.77
2022-08-14T00:18:30.497Z,28.67
2022-08-14T00:19:06.277Z,28.74
2022-08-14T00:19:19.047Z,28.79
2022-08-14T00:19:47.596Z,28.63
2022-08-14T00:20:23.377Z,28.66
2022-08-14T00:20:47.649Z,28.73
2022-08-14T00:21:17.758Z,28.63
2022-08-14T00:21:47.894Z,28.68
2022-08-14T00:22:44.194Z,28.63
2022-08-14T00:22:57.536Z,28.62
2022-08-14T00:23:18.178Z,28.69
2022-08-14T00:23:54.077Z,28.71
2022-08-14T00:24:28.371Z,28.61
2022-08-14T00:24:48.054Z,28.75
2022-08-14T00:25:18.164Z,28.76
2022-08-14T00:25:58.591Z,28.74
2022-08-14T00:26:21.906Z,28.71
2022-08-14T00:26:48.309Z,28.71
2022-08-14T00:27:18.325Z,28.80
2022-08-14T00:27:49.145Z,28.66
2022-08-14T00:28:18.447Z,28.69
2022-08-14T00:28:48.559Z,28.66
2022-08-14T00:29:18.653Z,28.63
2022-08-14T00:29:48.772Z,28.65
2022-08-14T00:30:18.852Z,28.63
2022-08-14T00:30:48.858Z,28.72
2022-08-14T00:31:18.947Z,28.65
2022-08-14T00:31:49.004Z,28.76
2022-08-14T00:32:50.621Z,28.82
2022-08-14T00:32:52.280Z,28.69
2022-08-14T00:33:19.049Z,28.66
2022-08-14T00:33:50.510Z,28.85
2022-08-14T00:34:37.634Z,28.79
2022-08-14T00:34:49.263Z,28.66
2022-08-14T00:35:19.371Z,28.69
2022-08-14T00:36:35.326Z,28.61
2022-08-14T00:36:36.597Z,28.61
2022-08-14T00:36:49.946Z,28.66
2022-08-14T00:37:19.579Z,28.68
2022-08-14T00:37:49.695Z,28.71
2022-08-14T00:38:19.766Z,28.74
2022-08-14T00:38:49.762Z,28.68
2022-08-14T00:39:19.923Z,28.74
2022-08-14T00:39:49.982Z,28.72
2022-08-14T00:40:33.036Z,28.72
2022-08-14T00:40:49.939Z,28.72
2022-08-14T00:41:19.994Z,28.60
2022-08-14T00:41:50.061Z,28.71
2022-08-14T00:42:52.735Z,28.71
2022-08-14T00:42:55.646Z,28.78
2022-08-14T00:43:20.091Z,28.64
2022-08-14T00:43:50.169Z,28.69
2022-08-14T00:44:21.554Z,28.69
2022-08-14T00:44:50.174Z,28.64
2022-08-14T00:45:20.183Z,28.77
2022-08-14T00:45:52.678Z,28.71
2022-08-14T00:46:32.858Z,28.71
2022-08-14T00:46:50.476Z,28.75
2022-08-14T00:47:20.438Z,28.64
2022-08-14T00:47:50.436Z,28.72
2022-08-14T00:48:34.101Z,28.75
2022-08-14T00:48:50.636Z,28.80
2022-08-14T00:49:21.140Z,28.77
2022-08-14T00:49:50.722Z,28.84
2022-08-14T00:50:21.945Z,28.85
2022-08-14T00:50:50.850Z,28.82
2022-08-14T00:51:20.933Z,28.71
2022-08-14T00:51:51.011Z,28.74
2022-08-14T00:52:21.098Z,28.81
2022-08-14T00:52:51.197Z,28.81
2022-08-14T00:53:21.125Z,28.74
2022-08-14T00:53:51.207Z,28.80
2022-08-14T00:54:22.244Z,28.83
2022-08-14T00:54:51.264Z,28.75
2022-08-14T00:55:21.371Z,28.72
2022-08-14T00:55:51.440Z,28.80
2022-08-14T00:56:21.542Z,28.81
2022-08-14T00:56:54.718Z,28.81
2022-08-14T00:57:21.714Z,28.91
2022-08-14T00:57:51.800Z,28.74
2022-08-14T00:58:27.830Z,28.83
2022-08-14T00:58:51.820Z,28.70
2022-08-14T00:59:21.827Z,28.72
2022-08-14T00:59:51.946Z,28.70
2022-08-14T01:00:37.447Z,28.84
2022-08-14T01:00:57.696Z,28.75
2022-08-14T01:01:22.062Z,28.78
2022-08-14T01:01:52.683Z,28.91
2022-08-14T01:02:22.083Z,28.78
2022-08-14T01:02:53.957Z,28.81
2022-08-14T01:03:22.205Z,28.80
2022-08-14T01:03:53.002Z,28.74
2022-08-14T01:04:38.383Z,28.80
2022-08-14T01:04:54.921Z,28.72
2022-08-14T01:05:22.394Z,28.75
2022-08-14T01:05:52.525Z,28.90
2022-08-14T01:06:22.625Z,28.81
2022-08-14T01:06:55.301Z,28.74
2022-08-14T01:07:22.770Z,28.75
2022-08-14T01:07:56.908Z,28.80
2022-08-14T01:08:51.856Z,28.78
2022-08-14T01:08:59.439Z,28.81
2022-08-14T01:09:22.811Z,28.74
2022-08-14T01:09:52.922Z,28.94
2022-08-14T01:10:22.920Z,28.84
2022-08-14T01:10:53.003Z,28.86
2022-08-14T01:11:22.998Z,28.84
2022-08-14T01:11:57.240Z,28.81
2022-08-14T01:12:26.847Z,28.81
2022-08-14T01:12:53.141Z,28.80
2022-08-14T01:13:23.163Z,28.83
2022-08-14T01:14:01.163Z,28.90
2022-08-14T01:14:28.424Z,28.79
2022-08-14T01:14:53.300Z,28.78
2022-08-14T01:15:31.582Z,28.79
2022-08-14T01:15:58.209Z,28.85
2022-08-14T01:16:27.899Z,28.97
2022-08-14T01:16:55.620Z,28.90
2022-08-14T01:17:23.564Z,28.84
2022-08-14T01:17:53.679Z,28.84
2022-08-14T01:18:23.674Z,28.85
2022-08-14T01:19:01.073Z,28.79
2022-08-14T01:19:23.716Z,28.78
2022-08-14T01:19:53.985Z,28.75
2022-08-14T01:20:27.781Z,28.81
2022-08-14T01:20:53.852Z,28.93
2022-08-14T01:21:23.905Z,28.87
2022-08-14T01:21:54.012Z,28.85
2022-08-14T01:22:26.889Z,28.83
2022-08-14T01:22:54.133Z,28.87
2022-08-14T01:23:24.134Z,28.87
2022-08-14T01:23:54.144Z,28.92
2022-08-14T01:24:30.399Z,28.82
2022-08-14T01:24:54.227Z,28.92
2022-08-14T01:25:24.227Z,28.87
2022-08-14T01:25:54.230Z,28.88
2022-08-14T01:26:38.543Z,28.87
2022-08-14T01:26:54.284Z,28.94
2022-08-14T01:27:24.700Z,28.84
2022-08-14T01:27:57.537Z,28.85
2022-08-14T01:28:47.378Z,28.99
2022-08-14T01:28:56.527Z,28.98
2022-08-14T01:29:35.161Z,28.90
2022-08-14T01:30:01.292Z,28.90
2022-08-14T01:30:24.628Z,28.95
2022-08-14T01:30:54.648Z,28.95
2022-08-14T01:31:24.769Z,28.85
2022-08-14T01:31:54.878Z,28.87
2022-08-14T01:32:24.996Z,28.89
2022-08-14T01:32:55.116Z,28.98
2022-08-14T01:33:25.226Z,28.90
2022-08-14T01:35:15.784Z,28.92
2022-08-14T01:35:17.701Z,28.84
2022-08-14T01:35:21.220Z,28.90
2022-08-14T01:36:02.809Z,28.92
2022-08-14T01:36:04.029Z,28.91
2022-08-14T01:36:25.347Z,28.85
2022-08-14T01:36:55.449Z,28.90
2022-08-14T01:37:25.548Z,28.93
2022-08-14T01:37:56.893Z,28.96
2022-08-14T01:38:25.598Z,28.87
2022-08-14T01:38:55.668Z,28.95
2022-08-14T01:39:25.889Z,28.93
2022-08-14T01:39:55.904Z,28.95
2022-08-14T01:40:36.209Z,29.02
2022-08-14T01:40:55.898Z,28.91
2022-08-14T01:41:30.191Z,28.88
2022-08-14T01:41:56.012Z,28.93
2022-08-14T01:42:31.438Z,28.96
2022-08-14T01:42:56.115Z,28.93
2022-08-14T01:43:26.535Z,28.96
2022-08-14T01:43:57.030Z,28.95
2022-08-14T01:44:32.159Z,28.96
2022-08-14T01:44:56.466Z,28.91
2022-08-14T01:45:26.581Z,28.90
2022-08-14T01:45:57.624Z,28.90
2022-08-14T01:46:33.359Z,28.88
2022-08-14T01:47:00.855Z,28.97
2022-08-14T01:47:26.946Z,28.94
2022-08-14T01:48:03.686Z,29.04
2022-08-14T01:48:27.169Z,28.93
2022-08-14T01:48:57.241Z,28.98
2022-08-14T01:49:35.309Z,28.88
2022-08-14T01:50:01.719Z,28.93
2022-08-14T01:50:27.514Z,28.90
2022-08-14T01:50:57.850Z,29.01
2022-08-14T01:51:27.644Z,28.94
2022-08-14T01:51:57.725Z,28.97
2022-08-14T01:52:34.650Z,28.99
2022-08-14T01:53:00.486Z,28.96
2022-08-14T01:53:31.516Z,29.01
2022-08-14T01:53:58.071Z,29.07
2022-08-14T01:54:37.812Z,28.99
2022-08-14T01:54:58.647Z,28.94
2022-08-14T01:55:28.345Z,28.94
2022-08-14T01:55:58.456Z,29.01
2022-08-14T01:56:30.468Z,29.02
2022-08-14T01:56:58.434Z,28.94
2022-08-14T01:57:49.570Z,28.99
2022-08-14T01:58:18.148Z,29.08
2022-08-14T01:58:28.647Z,29.01
2022-08-14T01:58:58.453Z,29.03
2022-08-14T01:59:37.676Z,29.06
2022-08-14T01:59:58.584Z,29.02
2022-08-14T02:00:28.632Z,29.01
2022-08-14T02:00:58.735Z,28.97
2022-08-14T02:01:28.779Z,29.03
2022-08-14T02:01:59.535Z,29.04
2022-08-14T02:02:28.818Z,28.93
2022-08-14T02:02:58.820Z,28.96
2022-08-14T02:03:29.553Z,29.06
2022-08-14T02:03:59.049Z,28.99
2022-08-14T02:04:54.535Z,28.97
2022-08-14T02:04:59.177Z,29.05
2022-08-14T02:05:29.292Z,28.90
2022-08-14T02:05:59.303Z,28.97
2022-08-14T02:06:32.434Z,29.10
2022-08-14T02:06:59.498Z,28.97
2022-08-14T02:07:44.812Z,28.92
2022-08-14T02:08:08.889Z,29.06
2022-08-14T02:08:35.426Z,29.06
2022-08-14T02:08:59.651Z,29.00
2022-08-14T02:09:29.641Z,29.03
2022-08-14T02:09:59.691Z,28.97
2022-08-14T02:10:29.802Z,29.05
2022-08-14T02:10:59.905Z,29.01
2022-08-14T02:11:30.016Z,29.05
2022-08-14T02:12:00.079Z,29.00
2022-08-14T02:12:30.825Z,29.06
2022-08-14T02:13:00.136Z,29.05
2022-08-14T02:13:30.690Z,28.96
2022-08-14T02:14:07.187Z,29.08
2022-08-14T02:14:30.912Z,29.08
2022-08-14T02:15:01.324Z,28.96
2022-08-14T02:15:30.433Z,29.02
2022-08-14T02:16:00.466Z,29.00
2022-08-14T02:16:30.480Z,28.99
2022-08-14T02:17:00.585Z,28.97
2022-08-14T02:17:31.043Z,29.08
2022-08-14T02:18:00.742Z,29.01
2022-08-14T02:18:32.755Z,29.01
2022-08-14T02:19:00.879Z,29.06
2022-08-14T02:19:31.621Z,29.00
2022-08-14T02:20:01.042Z,29.03
2022-08-14T02:20:31.087Z,28.99
2022-08-14T02:21:01.202Z,29.09
2022-08-14T02:21:31.212Z,28.97
2022-08-14T02:22:02.925Z,29.12
2022-08-14T02:22:33.374Z,29.08
2022-08-14T02:23:01.280Z,29.00
2022-08-14T02:23:36.274Z,29.03
2022-08-14T02:24:01.404Z,29.00
2022-08-14T02:24:38.834Z,29.11
2022-08-14T02:25:01.563Z,29.17
2022-08-14T02:25:31.530Z,29.05
2022-08-14T02:26:24.418Z,29.06
2022-08-14T02:26:31.588Z,29.01
2022-08-14T02:28:24.523Z,29.09
2022-08-14T02:28:25.370Z,29.06
2022-08-14T02:28:26.100Z,29.10
2022-08-14T02:28:57.410Z,29.09
2022-08-14T02:29:03.441Z,29.15
2022-08-14T02:29:56.390Z,29.14
2022-08-14T02:30:02.664Z,29.03
2022-08-14T02:30:31.763Z,29.03
2022-08-14T02:31:01.757Z,29.00
2022-08-14T02:31:36.171Z,29.08
2022-08-14T02:32:01.887Z,29.04
2022-08-14T02:32:44.633Z,29.03
2022-08-14T02:33:02.006Z,29.11
2022-08-14T02:33:33.678Z,29.14
2022-08-14T02:34:02.157Z,29.07
2022-08-14T02:34:32.172Z,29.05
2022-08-14T02:35:02.279Z,29.11
2022-08-14T02:35:32.937Z,29.12
2022-08-14T02:36:05.041Z,29.07
2022-08-14T02:37:03.923Z,29.06
2022-08-14T02:37:06.941Z,29.00
2022-08-14T02:37:47.141Z,29.15
2022-08-14T02:38:04.235Z,29.17
2022-08-14T02:38:34.939Z,29.20
2022-08-14T02:39:02.723Z,29.07
2022-08-14T02:39:32.878Z,29.12
2022-08-14T02:40:05.582Z,29.07
2022-08-14T02:40:33.671Z,29.15
2022-08-14T02:41:03.008Z,29.09
2022-08-14T02:41:36.757Z,29.14
2022-08-14T02:42:04.376Z,29.11
2022-08-14T02:42:37.125Z,29.10
2022-08-14T02:43:03.398Z,29.09
2022-08-14T02:43:37.321Z,29.14
2022-08-14T02:44:03.222Z,29.04
2022-08-14T02:44:39.476Z,29.09
2022-08-14T02:45:03.335Z,29.18
2022-08-14T02:45:38.347Z,29.09
2022-08-14T02:46:03.396Z,29.03
2022-08-14T02:46:33.924Z,29.13
2022-08-14T02:47:03.499Z,29.12
2022-08-14T02:47:33.606Z,29.09
2022-08-14T02:48:03.699Z,29.13
2022-08-14T02:49:04.769Z,29.07
2022-08-14T02:49:06.318Z,29.10
2022-08-14T02:49:34.449Z,29.07
2022-08-14T02:50:04.004Z,29.10
2022-08-14T02:50:34.055Z,29.09
2022-08-14T02:51:04.138Z,29.09
2022-08-14T02:51:34.276Z,29.18
2022-08-14T02:52:05.948Z,29.10
2022-08-14T02:52:57.880Z,29.15
2022-08-14T02:53:04.620Z,29.09
2022-08-14T02:53:34.602Z,29.07
2022-08-14T02:54:04.748Z,29.10
2022-08-14T02:54:34.679Z,29.13
2022-08-14T02:55:04.765Z,29.10
2022-08-14T02:55:34.859Z,29.09
2022-08-14T02:56:29.465Z,29.07
2022-08-14T02:57:15.378Z,29.15
2022-08-14T02:57:16.476Z,29.12
2022-08-14T02:57:39.936Z,29.12
2022-08-14T02:58:06.019Z,29.20
2022-08-14T02:58:35.058Z,29.20
2022-08-14T02:59:05.675Z,29.18
2022-08-14T02:59:35.237Z,29.15
2022-08-14T03:00:06.616Z,29.13
2022-08-14T03:00:40.023Z,29.12
2022-08-14T03:01:05.505Z,29.12
2022-08-14T03:01:43.476Z,29.17
2022-08-14T03:02:05.612Z,29.21
2022-08-14T03:02:55.857Z,29.21
2022-08-14T03:03:07.735Z,29.15
2022-08-14T03:03:35.731Z,29.12
2022-08-14T03:04:05.744Z,29.21
2022-08-14T03:04:35.853Z,29.24
2022-08-14T03:05:05.963Z,29.15
2022-08-14T03:05:36.929Z,29.12
2022-08-14T03:06:06.165Z,29.15
2022-08-14T03:06:57.925Z,29.13
2022-08-14T03:07:08.245Z,29.15
2022-08-14T03:07:36.240Z,29.12
2022-08-14T03:08:06.333Z,29.12
2022-08-14T03:08:36.420Z,29.13
2022-08-14T03:09:06.493Z,29.26
2022-08-14T03:10:24.753Z,29.33
2022-08-14T03:10:25.692Z,29.21
2022-08-14T03:10:36.631Z,29.24
2022-08-14T03:11:07.567Z,29.22
2022-08-14T03:11:36.645Z,29.21
2022-08-14T03:12:06.759Z,29.21
2022-08-14T03:12:36.910Z,29.21
2022-08-14T03:13:06.881Z,29.12
2022-08-14T03:13:36.895Z,29.13
2022-08-14T03:14:07.004Z,29.15
2022-08-14T03:14:37.125Z,29.12
2022-08-14T03:15:07.241Z,29.19
2022-08-14T03:15:37.257Z,29.19
2022-08-14T03:16:09.162Z,29.08
2022-08-14T03:16:38.574Z,29.16
2022-08-14T03:17:07.354Z,29.21
2022-08-14T03:17:41.079Z,29.12
2022-08-14T03:18:07.427Z,29.24
2022-08-14T03:18:37.469Z,29.21
2022-08-14T03:19:07.462Z,29.22
2022-08-14T03:19:37.527Z,29.19
2022-08-14T03:20:07.523Z,29.21
2022-08-14T03:20:37.641Z,29.19
2022-08-14T03:21:07.925Z,29.13
2022-08-14T03:21:37.778Z,29.15
2022-08-14T03:22:09.384Z,29.21
2022-08-14T03:22:37.887Z,29.21
2022-08-14T03:23:07.852Z,29.19
2022-08-14T03:23:39.126Z,29.23
2022-08-14T03:24:07.995Z,29.32
2022-08-14T03:24:38.009Z,29.17
2022-08-14T03:25:08.026Z,29.21
2022-08-14T03:25:38.168Z,29.16
2022-08-14T03:26:08.204Z,29.28
2022-08-14T03:26:38.318Z,29.19
2022-08-14T03:27:08.417Z,29.24
2022-08-14T03:27:48.375Z,29.38
2022-08-14T03:28:08.531Z,29.25
2022-08-14T03:28:39.350Z,29.23
2022-08-14T03:29:09.907Z,29.23
2022-08-14T03:29:38.625Z,29.28
2022-08-14T03:30:14.307Z,29.23
2022-08-14T03:30:40.871Z,29.23
2022-08-14T03:31:13.475Z,29.23
2022-08-14T03:31:38.738Z,29.19
2022-08-14T03:32:08.786Z,29.17
2022-08-14T03:32:38.911Z,29.23
2022-08-14T03:33:08.970Z,29.28
2022-08-14T03:33:40.285Z,29.26
2022-08-14T03:34:10.085Z,29.22
2022-08-14T03:34:48.346Z,29.25
2022-08-14T03:35:09.465Z,29.29
2022-08-14T03:35:40.236Z,29.22
2022-08-14T03:37:37.978Z,29.28
2022-08-14T03:37:39.445Z,29.25
2022-08-14T03:37:51.951Z,29.25
2022-08-14T03:39:10.586Z,29.28
2022-08-14T03:39:13.383Z,29.29
2022-08-14T03:39:14.329Z,29.29
2022-08-14T03:39:21.801Z,29.28
2022-08-14T03:39:39.260Z,29.26
2022-08-14T03:40:11.384Z,29.26
2022-08-14T03:40:39.318Z,29.28
2022-08-14T03:41:09.439Z,29.33
2022-08-14T03:41:39.510Z,29.29
2022-08-14T03:42:19.355Z,29.28
2022-08-14T03:42:39.546Z,29.29
2022-08-14T03:43:09.541Z,29.29
2022-08-14T03:43:39.654Z,29.28
2022-08-14T03:45:18.799Z,29.26
2022-08-14T03:45:19.769Z,29.22
2022-08-14T03:45:25.748Z,29.25
2022-08-14T03:45:40.546Z,29.25
2022-08-14T03:46:10.062Z,29.28
2022-08-14T03:46:52.111Z,29.23
2022-08-14T03:47:10.131Z,29.25
2022-08-14T03:47:46.103Z,29.29
2022-08-14T03:48:11.147Z,29.31
2022-08-14T03:48:40.232Z,29.28
2022-08-14T03:49:09.925Z,29.26
2022-08-14T03:49:41.919Z,29.28
2022-08-14T03:50:09.995Z,29.26
2022-08-14T03:50:40.113Z,29.24
2022-08-14T03:51:10.097Z,29.33
2022-08-14T03:51:40.211Z,29.31
2022-08-14T03:52:28.186Z,29.36
2022-08-14T03:52:40.989Z,29.34
2022-08-14T03:53:10.332Z,29.40
2022-08-14T03:53:40.433Z,29.39
2022-08-14T03:54:11.065Z,29.24
2022-08-14T03:54:40.482Z,29.32
2022-08-14T03:55:10.591Z,29.33
2022-08-14T03:55:40.636Z,29.34
2022-08-14T03:56:10.638Z,29.31
2022-08-14T03:56:40.689Z,29.29
2022-08-14T03:57:10.720Z,29.29
2022-08-14T03:57:40.749Z,29.29
2022-08-14T03:58:10.772Z,29.32
2022-08-14T03:58:40.814Z,29.34
2022-08-14T03:59:10.841Z,29.32
2022-08-14T03:59:40.904Z,29.39
2022-08-14T04:00:13.633Z,29.34
2022-08-14T04:00:44.686Z,29.34
2022-08-14T04:01:11.087Z,29.34
2022-08-14T04:01:41.479Z,29.35
2022-08-14T04:02:32.432Z,29.39
2022-08-14T04:02:47.087Z,29.29
2022-08-14T04:03:13.299Z,29.34
2022-08-14T04:03:41.324Z,29.32
2022-08-14T04:04:11.338Z,29.34
2022-08-14T04:04:41.361Z,29.32
2022-08-14T04:05:12.985Z,29.27
2022-08-14T04:05:43.523Z,29.37
2022-08-14T04:06:11.621Z,29.35
2022-08-14T04:06:47.532Z,29.31
2022-08-14T04:07:11.705Z,29.42
2022-08-14T04:07:49.787Z,29.39
2022-08-14T04:08:28.988Z,29.40
2022-08-14T04:08:41.965Z,29.34
2022-08-14T04:09:11.860Z,29.34
2022-08-14T04:09:41.879Z,29.29
2022-08-14T04:10:11.977Z,29.39
2022-08-14T04:10:42.014Z,29.42
2022-08-14T04:11:12.104Z,29.30
2022-08-14T04:11:42.155Z,29.37
2022-08-14T04:12:13.283Z,29.37
2022-08-14T04:12:42.535Z,29.35
2022-08-14T04:13:12.312Z,29.30
2022-08-14T04:13:42.390Z,29.32
2022-08-14T04:14:12.392Z,29.38
2022-08-14T04:14:42.484Z,29.41
2022-08-14T04:15:12.534Z,29.38
2022-08-14T04:15:56.592Z,29.33
2022-08-14T04:16:13.103Z,29.40
2022-08-14T04:16:42.640Z,29.37
2022-08-14T04:17:12.661Z,29.32
2022-08-14T04:17:42.733Z,29.31
2022-08-14T04:18:12.759Z,29.37
2022-08-14T04:18:42.790Z,29.31
2022-08-14T04:19:12.838Z,29.32
2022-08-14T04:19:42.876Z,29.35
2022-08-14T04:20:12.948Z,29.32
2022-08-14T04:20:54.446Z,29.38
2022-08-14T04:21:13.040Z,29.37
2022-08-14T04:22:02.165Z,29.35
2022-08-14T04:22:13.203Z,29.33
2022-08-14T04:22:43.415Z,29.43
2022-08-14T04:23:15.507Z,29.38
2022-08-14T04:23:43.343Z,29.41
2022-08-14T04:24:13.440Z,29.46
2022-08-14T04:24:43.447Z,29.38
2022-08-14T04:25:13.470Z,29.47
2022-08-14T04:25:43.579Z,29.41
2022-08-14T04:26:14.983Z,29.35
2022-08-14T04:26:43.639Z,29.38
2022-08-14T04:27:16.746Z,29.44
2022-08-14T04:27:48.654Z,29.47
2022-08-14T04:29:07.676Z,29.41
2022-08-14T04:29:08.975Z,29.41
2022-08-14T04:29:15.441Z,29.44
2022-08-14T04:29:45.103Z,29.46
2022-08-14T04:30:25.993Z,29.41
2022-08-14T04:30:43.927Z,29.39
2022-08-14T04:31:15.317Z,29.41
2022-08-14T04:32:57.794Z,29.44
2022-08-14T04:32:58.748Z,29.43
2022-08-14T04:33:01.778Z,29.38
2022-08-14T04:33:20.397Z,29.47
2022-08-14T04:33:44.138Z,29.41
2022-08-14T04:34:20.695Z,29.50
2022-08-14T04:34:51.970Z,29.42
2022-08-14T04:35:14.249Z,29.49
2022-08-14T04:35:56.305Z,29.44
2022-08-14T04:36:15.972Z,29.39
2022-08-14T04:36:44.426Z,29.39
2022-08-14T04:37:22.395Z,29.39
2022-08-14T04:37:45.148Z,29.45
2022-08-14T04:38:36.026Z,29.41
2022-08-14T04:38:47.069Z,29.39
2022-08-14T04:39:14.680Z,29.41
2022-08-14T04:39:46.277Z,29.45
2022-08-14T04:40:15.164Z,29.41
2022-08-14T04:40:44.890Z,29.41
2022-08-14T04:41:15.105Z,29.48
2022-08-14T04:41:45.027Z,29.41
2022-08-14T04:42:15.037Z,29.41
2022-08-14T04:42:51.315Z,29.43
2022-08-14T04:43:17.319Z,29.42
2022-08-14T04:43:45.154Z,29.45
2022-08-14T04:44:35.887Z,29.41
2022-08-14T04:44:45.284Z,29.44
2022-08-14T04:45:15.329Z,29.48
2022-08-14T04:45:45.327Z,29.45
2022-08-14T04:46:54.679Z,29.44
2022-08-14T04:46:55.220Z,29.45
2022-08-14T04:47:15.397Z,29.39
2022-08-14T04:47:46.470Z,29.42
2022-08-14T04:48:38.982Z,29.45
2022-08-14T04:48:51.342Z,29.50
2022-08-14T04:49:15.483Z,29.41
2022-08-14T04:49:56.712Z,29.38
2022-08-14T04:50:15.490Z,29.47
2022-08-14T04:50:53.765Z,29.53
2022-08-14T04:51:15.620Z,29.47
2022-08-14T04:51:55.447Z,29.39
2022-08-14T04:52:19.081Z,29.53
2022-08-14T04:52:45.731Z,29.45
2022-08-14T04:53:15.745Z,29.48
2022-08-14T04:53:45.757Z,29.47
2022-08-14T04:54:16.688Z,29.43
2022-08-14T04:54:45.881Z,29.47
2022-08-14T04:55:15.995Z,29.45
2022-08-14T04:55:46.134Z,29.42
2022-08-14T04:56:30.195Z,29.48
2022-08-14T04:56:46.060Z,29.50
2022-08-14T04:57:16.092Z,29.48
2022-08-14T04:57:46.195Z,29.44
2022-08-14T04:58:21.593Z,29.39
2022-08-14T04:58:46.260Z,29.47
2022-08-14T04:59:16.278Z,29.48
2022-08-14T04:59:46.306Z,29.47
2022-08-14T05:00:18.159Z,29.45
2022-08-14T05:00:46.422Z,29.45
2022-08-14T05:01:19.634Z,29.51
2022-08-14T05:01:47.818Z,29.43
2022-08-14T05:02:16.634Z,29.50
2022-08-14T05:02:46.919Z,29.45
2022-08-14T05:03:16.662Z,29.54
2022-08-14T05:03:46.690Z,29.50
2022-08-14T05:04:20.150Z,29.41
2022-08-14T05:04:56.899Z,29.42
2022-08-14T05:05:16.815Z,29.48
2022-08-14T05:05:46.845Z,29.51
2022-08-14T05:06:37.647Z,29.48
2022-08-14T05:06:46.997Z,29.50
2022-08-14T05:07:17.034Z,29.45
2022-08-14T05:08:01.642Z,29.48
2022-08-14T05:08:32.394Z,29.53
2022-08-14T05:08:56.897Z,29.48
2022-08-14T05:09:17.331Z,29.48
2022-08-14T05:09:47.933Z,29.53
2022-08-14T05:10:21.841Z,29.50
2022-08-14T05:10:47.455Z,29.51
2022-08-14T05:11:17.581Z,29.50
2022-08-14T05:11:47.570Z,29.45
2022-08-14T05:13:12.840Z,29.48
2022-08-14T05:13:13.162Z,29.50
2022-08-14T05:13:17.698Z,29.50
2022-08-14T05:14:34.626Z,29.51
2022-08-14T05:14:45.794Z,29.50
2022-08-14T05:14:54.867Z,29.54
2022-08-14T05:15:17.846Z,29.45
2022-08-14T05:15:48.049Z,29.59
2022-08-14T05:16:17.973Z,29.48
2022-08-14T05:16:48.011Z,29.56
2022-08-14T05:17:18.116Z,29.46
2022-08-14T05:17:53.950Z,29.46
2022-08-14T05:18:52.918Z,29.45
2022-08-14T05:19:19.124Z,29.49
2022-08-14T05:19:26.719Z,29.43
2022-08-14T05:21:04.282Z,29.51
2022-08-14T05:21:04.547Z,29.45
2022-08-14T05:21:57.105Z,29.56
2022-08-14T05:21:57.614Z,29.51
2022-08-14T05:22:00.352Z,29.51
2022-08-14T05:22:19.317Z,29.52
2022-08-14T05:22:52.011Z,29.49
2022-08-14T05:23:18.697Z,29.57
2022-08-14T05:23:48.732Z,29.54
2022-08-14T05:24:18.929Z,29.51
2022-08-14T05:24:50.617Z,29.48
2022-08-14T05:25:18.790Z,29.51
2022-08-14T05:25:48.816Z,29.48
2022-08-14T05:26:18.838Z,29.48
2022-08-14T05:26:48.861Z,29.46
2022-08-14T05:27:18.880Z,29.51
2022-08-14T05:27:48.914Z,29.53
2022-08-14T05:28:18.958Z,29.49
2022-08-14T05:28:49.045Z,29.50
2022-08-14T05:29:19.074Z,29.48
2022-08-14T05:29:49.109Z,29.50
2022-08-14T05:30:19.133Z,29.51
2022-08-14T05:30:49.162Z,29.49
2022-08-14T05:31:20.317Z,29.46
2022-08-14T05:31:49.207Z,29.46
2022-08-14T05:32:19.245Z,29.57
2022-08-14T05:32:49.315Z,29.50
2022-08-14T05:33:19.342Z,29.46
2022-08-14T05:33:56.834Z,29.49
2022-08-14T05:34:19.438Z,29.44
2022-08-14T05:34:49.463Z,29.43
2022-08-14T05:35:19.484Z,29.50
2022-08-14T05:35:49.547Z,29.56
2022-08-14T05:36:19.575Z,29.50
2022-08-14T05:36:50.698Z,29.51
2022-08-14T05:37:19.629Z,29.53
2022-08-14T05:37:49.726Z,29.48
2022-08-14T05:38:22.324Z,29.54
2022-08-14T05:38:49.789Z,29.49
2022-08-14T05:39:19.892Z,29.51
2022-08-14T05:39:49.910Z,29.50
2022-08-14T05:40:19.947Z,29.49
2022-08-14T05:40:49.971Z,29.49
2022-08-14T05:41:19.994Z,29.51
2022-08-14T05:41:53.013Z,29.54
2022-08-14T05:42:22.032Z,29.56
2022-08-14T05:42:52.860Z,29.53
2022-08-14T05:43:20.099Z,29.48
2022-08-14T05:43:51.083Z,29.48
2022-08-14T05:44:20.138Z,29.53
2022-08-14T05:44:50.162Z,29.51
2022-08-14T05:45:20.240Z,29.51
2022-08-14T05:45:50.263Z,29.46
2022-08-14T05:46:22.108Z,29.55
2022-08-14T05:46:50.364Z,29.49
2022-08-14T05:47:20.472Z,29.52
2022-08-14T05:47:50.883Z,29.51
2022-08-14T05:48:23.404Z,29.46
2022-08-14T05:48:50.656Z,29.49
2022-08-14T05:49:20.727Z,29.49
2022-08-14T05:49:51.690Z,29.49
2022-08-14T05:50:20.856Z,29.48
2022-08-14T05:50:50.845Z,29.51
2022-08-14T05:51:20.957Z,29.48
2022-08-14T05:51:50.969Z,29.49
2022-08-14T05:52:38.565Z,29.48
2022-08-14T05:52:51.603Z,29.48
2022-08-14T05:53:21.149Z,29.55
2022-08-14T05:54:00.167Z,29.46
2022-08-14T05:54:26.600Z,29.44
2022-08-14T05:54:51.224Z,29.51
2022-08-14T05:55:22.113Z,29.55
2022-08-14T05:55:51.314Z,29.51
2022-08-14T05:56:21.389Z,29.49
2022-08-14T05:56:51.456Z,29.51
2022-08-14T05:57:21.458Z,29.46
2022-08-14T05:57:51.498Z,29.51
2022-08-14T05:58:21.572Z,29.55
2022-08-14T05:58:51.620Z,29.51
2022-08-14T05:59:21.638Z,29.48
2022-08-14T05:59:51.691Z,29.48
2022-08-14T06:00:29.150Z,29.51
2022-08-14T06:00:51.780Z,29.51
2022-08-14T06:01:21.913Z,29.41
2022-08-14T06:01:52.005Z,29.49
2022-08-14T06:02:21.948Z,29.52
2022-08-14T06:02:51.987Z,29.48
2022-08-14T06:03:22.079Z,29.51
2022-08-14T06:03:54.496Z,29.44
2022-08-14T06:04:22.119Z,29.44
2022-08-14T06:04:52.143Z,29.44
2022-08-14T06:05:23.171Z,29.44
2022-08-14T06:05:52.191Z,29.49
2022-08-14T06:06:22.223Z,29.54
2022-08-14T06:06:52.274Z,29.48
2022-08-14T06:07:22.379Z,29.44
2022-08-14T06:07:52.456Z,29.48
2022-08-14T06:08:36.672Z,29.53
2022-08-14T06:08:52.462Z,29.43
2022-08-14T06:09:22.456Z,29.43
2022-08-14T06:09:52.687Z,29.48
2022-08-14T06:10:22.562Z,29.48
2022-08-14T06:10:52.647Z,29.39
2022-08-14T06:11:23.959Z,29.42
2022-08-14T06:11:52.783Z,29.46
2022-08-14T06:12:31.574Z,29.46
2022-08-14T06:12:56.361Z,29.45
2022-08-14T06:13:22.871Z,29.39
2022-08-14T06:13:52.916Z,29.48
2022-08-14T06:14:24.039Z,29.41
2022-08-14T06:14:53.010Z,29.51
2022-08-14T06:15:26.338Z,29.43
2022-08-14T06:15:53.127Z,29.46
2022-08-14T06:16:23.197Z,29.43
2022-08-14T06:16:53.534Z,29.52
2022-08-14T06:17:25.654Z,29.49
2022-08-14T06:17:59.093Z,29.44
2022-08-14T06:18:25.186Z,29.45
2022-08-14T06:18:53.506Z,29.49
2022-08-14T06:19:23.677Z,29.46
2022-08-14T06:19:53.601Z,29.44
2022-08-14T06:20:23.607Z,29.46
2022-08-14T06:20:53.623Z,29.44
2022-08-14T06:21:23.740Z,29.50
2022-08-14T06:21:59.281Z,29.46
2022-08-14T06:22:23.798Z,29.43
2022-08-14T06:22:53.940Z,29.51
2022-08-14T06:23:23.967Z,29.43
2022-08-14T06:23:54.000Z,29.44
2022-08-14T06:24:24.028Z,29.43
2022-08-14T06:24:54.107Z,29.45
2022-08-14T06:25:24.895Z,29.36
2022-08-14T06:25:54.242Z,29.46
2022-08-14T06:26:30.325Z,29.43
2022-08-14T06:27:04.048Z,29.40